26°C Temp
23°C Dewpoint
84% Humidity
Temperature
10 KM/H
6 MPH
5 KTS
10°
Due North

Wind Speed
Partly Cloudy
Conditions
Pressure 1007.92 (hPa) - 29.76 (in)
Visibility 6.2 (mi) - 10.0 (km)

Current Conditions
WSSL
Location Seletar 6km (3.2mi)
Metar :WSSL 182100Z 01005KT 9999 FEW018 BKN300 26/23 Q1008
Sat 19th January 05:00 am

Airport
  Metar Aviation API Data Provided by https://www.checkwx.com/ CSS/SVG/PHP scripts by weather34.com © 2015-2019